createdAt,value
2023-02-27T00:00:20.231Z,101106.03
2023-02-27T00:02:50.015Z,101099.16
2023-02-27T00:05:17.544Z,101095.69
2023-02-27T00:07:44.472Z,101101.63
2023-02-27T00:10:14.341Z,101105.94
2023-02-27T00:12:41.372Z,101102.56
2023-02-27T00:15:15.295Z,101102.56
2023-02-27T00:17:42.454Z,101099.06
2023-02-27T00:20:12.774Z,101094.81
2023-02-27T00:22:40.768Z,101095.53
2023-02-27T00:25:07.895Z,101093.97
2023-02-27T00:27:35.313Z,101094.88
2023-02-27T00:30:02.069Z,101091.31
2023-02-27T00:32:30.069Z,101092.28
2023-02-27T00:34:56.803Z,101089.50
2023-02-27T00:37:23.498Z,101090.41
2023-02-27T00:39:50.421Z,101094.53
2023-02-27T00:42:17.067Z,101092.97
2023-02-27T00:44:43.662Z,101098.06
2023-02-27T00:47:10.191Z,101093.75
2023-02-27T00:49:39.297Z,101095.38
2023-02-27T00:52:05.923Z,101089.34
2023-02-27T00:54:34.768Z,101092.91
2023-02-27T00:57:01.372Z,101097.13
2023-02-27T00:59:28.576Z,101097.97
2023-02-27T01:01:54.980Z,101099.63
2023-02-27T01:04:21.683Z,101096.31
2023-02-27T01:06:48.094Z,101102.22
2023-02-27T01:09:14.586Z,101095.38
2023-02-27T01:11:41.000Z,101104.81
2023-02-27T01:14:07.505Z,101096.22
2023-02-27T01:16:34.040Z,101091.94
2023-02-27T01:19:00.569Z,101089.28
2023-02-27T01:21:27.395Z,101097.84
2023-02-27T01:23:54.073Z,101094.50
2023-02-27T01:26:20.778Z,101092.69
2023-02-27T01:28:47.803Z,101083.16
2023-02-27T01:31:14.902Z,101084.94
2023-02-27T01:33:41.435Z,101081.50
2023-02-27T01:36:08.435Z,101082.41
2023-02-27T01:38:35.118Z,101079.84
2023-02-27T01:41:04.336Z,101081.56
2023-02-27T01:43:32.256Z,101087.50
2023-02-27T01:46:00.549Z,101085.81
2023-02-27T01:48:34.265Z,101080.47
2023-02-27T01:51:07.210Z,101089.97
2023-02-27T01:53:36.391Z,101088.25
2023-02-27T01:56:18.437Z,101086.59
2023-02-27T01:58:47.634Z,101090.78
2023-02-27T02:01:15.230Z,101082.34
2023-02-27T02:03:48.424Z,101083.22
2023-02-27T02:06:15.583Z,101084.09
2023-02-27T02:08:45.016Z,101080.59
2023-02-27T02:11:13.287Z,101078.84
2023-02-27T02:13:41.025Z,101077.03
2023-02-27T02:16:32.960Z,101077.88
2023-02-27T02:19:05.315Z,101083.06
2023-02-27T02:21:43.613Z,101080.41
2023-02-27T02:24:45.521Z,101075.28
2023-02-27T02:27:33.234Z,101076.97
2023-02-27T02:30:37.251Z,101088.88
2023-02-27T02:33:22.731Z,101085.38
2023-02-27T02:36:10.927Z,101088.00
2023-02-27T02:39:25.337Z,101080.28
2023-02-27T02:42:31.985Z,101079.34
2023-02-27T02:45:33.215Z,101082.75
2023-02-27T02:48:42.841Z,101084.44
2023-02-27T02:51:47.717Z,101080.94
2023-02-27T02:54:21.337Z,101080.19
2023-02-27T02:56:53.861Z,101074.94
2023-02-27T02:59:27.902Z,101081.84
2023-02-27T03:02:18.467Z,101089.41
2023-02-27T03:05:05.417Z,101083.50
2023-02-27T03:07:48.111Z,101086.91
2023-02-27T03:10:20.956Z,101088.56
2023-02-27T03:12:54.736Z,101086.00
2023-02-27T03:15:36.776Z,101082.47
2023-02-27T03:18:08.493Z,101096.06
2023-02-27T03:20:43.366Z,101092.63
2023-02-27T03:23:21.884Z,101093.56
2023-02-27T03:25:50.735Z,101098.63
2023-02-27T03:28:23.648Z,101101.19
2023-02-27T03:31:00.990Z,101096.84
2023-02-27T03:33:35.690Z,101101.06
2023-02-27T03:36:12.449Z,101096.72
2023-02-27T03:38:54.954Z,101097.56
2023-02-27T03:41:29.052Z,101105.22
2023-02-27T03:44:14.561Z,101108.66
2023-02-27T03:46:41.214Z,101118.03
2023-02-27T03:49:07.919Z,101101.06
2023-02-27T03:51:35.149Z,101117.44
2023-02-27T03:54:13.698Z,101110.38
2023-02-27T03:57:05.098Z,101113.69
2023-02-27T03:59:33.338Z,101116.38
2023-02-27T04:02:02.724Z,101118.84
2023-02-27T04:04:32.769Z,101113.72
2023-02-27T04:07:40.457Z,101119.75
2023-02-27T04:10:45.515Z,101128.34
2023-02-27T04:13:18.302Z,101124.06
2023-02-27T04:16:06.569Z,101130.84
2023-02-27T04:19:04.812Z,101129.16
2023-02-27T04:21:57.120Z,101134.22
2023-02-27T04:24:42.595Z,101133.38
2023-02-27T04:27:32.400Z,101133.63
2023-02-27T04:30:20.803Z,101135.22
2023-02-27T04:33:24.359Z,101135.97
2023-02-27T04:35:55.334Z,101141.03
2023-02-27T04:38:35.750Z,101142.84
2023-02-27T04:41:15.046Z,101142.88
2023-02-27T04:43:42.707Z,101143.75
2023-02-27T04:46:14.716Z,101153.84
2023-02-27T04:48:53.352Z,101152.16
2023-02-27T04:51:29.491Z,101147.88
2023-02-27T04:54:08.684Z,101150.44
2023-02-27T04:56:40.557Z,101157.22
2023-02-27T04:59:13.608Z,101160.59
2023-02-27T05:01:43.287Z,101150.44
2023-02-27T05:04:15.723Z,101147.84
2023-02-27T05:06:45.893Z,101154.50
2023-02-27T05:09:24.079Z,101159.63
2023-02-27T05:11:58.807Z,101165.53
2023-02-27T05:14:59.678Z,101167.34
2023-02-27T05:17:31.848Z,101162.19
2023-02-27T05:19:59.227Z,101160.53
2023-02-27T05:22:41.112Z,101164.56
2023-02-27T05:25:22.626Z,101171.53
2023-02-27T05:28:10.766Z,101178.38
2023-02-27T05:30:59.190Z,101178.19
2023-02-27T05:33:58.035Z,101173.22
2023-02-27T05:36:34.613Z,101176.50
2023-02-27T05:39:06.672Z,101185.78
2023-02-27T05:41:42.966Z,101178.03
2023-02-27T05:44:17.475Z,101173.06
2023-02-27T05:46:49.753Z,101182.41
2023-02-27T05:49:26.128Z,101176.66
2023-02-27T05:51:56.858Z,101183.78
2023-02-27T05:54:36.224Z,101172.66
2023-02-27T05:57:08.613Z,101181.94
2023-02-27T05:59:43.744Z,101182.84
2023-02-27T06:02:11.613Z,101181.19
2023-02-27T06:04:38.807Z,101179.06
2023-02-27T06:07:07.483Z,101179.13
2023-02-27T06:09:35.480Z,101180.91
2023-02-27T06:12:02.153Z,101183.34
2023-02-27T06:14:28.761Z,101184.31
2023-02-27T06:16:55.464Z,101189.38
2023-02-27T06:19:21.958Z,101189.38
2023-02-27T06:21:48.946Z,101188.53
2023-02-27T06:24:15.476Z,101193.84
2023-02-27T06:26:42.015Z,101192.16
2023-02-27T06:29:08.429Z,101189.59
2023-02-27T06:31:34.913Z,101209.09
2023-02-27T06:34:01.333Z,101205.91
2023-02-27T06:36:30.032Z,101206.66
2023-02-27T06:38:58.081Z,101204.91
2023-02-27T06:41:25.452Z,101216.06
2023-02-27T06:43:52.014Z,101205.91
2023-02-27T06:46:18.548Z,101214.31
2023-02-27T06:48:45.509Z,101211.06
2023-02-27T06:51:12.049Z,101227.41
2023-02-27T06:53:38.523Z,101224.06
2023-02-27T06:56:05.485Z,101224.94
2023-02-27T06:58:31.853Z,101228.44
2023-02-27T07:01:00.228Z,101225.13
2023-02-27T07:03:27.054Z,101226.22
2023-02-27T07:05:53.417Z,101218.47
2023-02-27T07:08:19.923Z,101226.28
2023-02-27T07:10:47.205Z,101228.97
2023-02-27T07:13:16.822Z,101229.19
2023-02-27T07:15:44.656Z,101236.91
2023-02-27T07:18:11.213Z,101229.19
2023-02-27T07:20:37.614Z,101241.41
2023-02-27T07:23:04.140Z,101249.19
2023-02-27T07:25:30.674Z,101240.03
2023-02-27T07:27:57.116Z,101242.72
2023-02-27T07:30:23.561Z,101242.03
2023-02-27T07:32:50.613Z,101240.56
2023-02-27T07:35:17.185Z,101242.44
2023-02-27T07:37:43.971Z,101241.66
2023-02-27T07:40:10.900Z,101247.13
2023-02-27T07:42:37.451Z,101240.31
2023-02-27T07:45:04.742Z,101252.66
2023-02-27T07:47:31.640Z,101239.69
2023-02-27T07:49:58.066Z,101243.19
2023-02-27T07:52:25.253Z,101249.69
2023-02-27T07:54:52.336Z,101248.69
2023-02-27T07:57:18.848Z,101252.38
2023-02-27T07:59:45.322Z,101247.34
2023-02-27T08:02:12.346Z,101248.38
2023-02-27T08:04:38.818Z,101244.13
2023-02-27T08:07:05.674Z,101246.84
2023-02-27T08:09:32.380Z,101245.97
2023-02-27T08:11:58.829Z,101252.72
2023-02-27T08:14:25.439Z,101236.78
2023-02-27T08:16:51.926Z,101238.78
2023-02-27T08:19:18.453Z,101250.94
2023-02-27T08:21:44.807Z,101243.25
2023-02-27T08:24:11.259Z,101235.78
2023-02-27T08:26:37.805Z,101244.69
2023-02-27T08:29:04.361Z,101234.00
2023-02-27T08:31:30.903Z,101235.16
2023-02-27T08:34:09.432Z,101246.47
2023-02-27T08:36:37.710Z,101243.94
2023-02-27T08:39:04.918Z,101247.41
2023-02-27T08:41:31.364Z,101244.84
2023-02-27T08:43:58.052Z,101245.56
2023-02-27T08:46:24.878Z,101250.06
2023-02-27T08:48:51.576Z,101247.72
2023-02-27T08:51:17.990Z,101248.59
2023-02-27T08:53:44.422Z,101255.78
2023-02-27T08:56:10.920Z,101261.59
2023-02-27T08:58:37.451Z,101255.59
2023-02-27T09:01:04.170Z,101259.19
2023-02-27T09:03:31.383Z,101252.53
2023-02-27T09:05:58.146Z,101262.59
2023-02-27T09:08:24.815Z,101263.59
2023-02-27T09:10:51.312Z,101267.75
2023-02-27T09:13:17.825Z,101263.66
2023-02-27T09:15:47.611Z,101261.25
2023-02-27T09:18:14.000Z,101262.84
2023-02-27T09:20:41.483Z,101255.97
2023-02-27T09:23:08.230Z,101254.19
2023-02-27T09:25:34.889Z,101257.81
2023-02-27T09:28:01.521Z,101266.44
2023-02-27T09:30:28.032Z,101272.38
2023-02-27T09:32:54.532Z,101275.88
2023-02-27T09:35:21.772Z,101280.13
2023-02-27T09:37:49.479Z,101270.75
2023-02-27T09:40:40.328Z,101282.03
2023-02-27T09:43:24.046Z,101274.28
2023-02-27T09:45:54.925Z,101290.63
2023-02-27T09:48:36.472Z,101277.75
2023-02-27T09:51:03.496Z,101284.63
2023-02-27T09:53:37.289Z,101297.56
2023-02-27T09:56:19.227Z,101293.25
2023-02-27T09:58:51.274Z,101299.28
2023-02-27T10:01:30.128Z,101288.97
2023-02-27T10:04:18.928Z,101308.78
2023-02-27T10:06:57.793Z,101307.03
2023-02-27T10:09:34.281Z,101307.94
2023-02-27T10:13:55.725Z,101307.00
2023-02-27T10:16:23.246Z,101302.63
2023-02-27T10:19:05.984Z,101296.59
2023-02-27T10:21:39.704Z,101303.41
2023-02-27T10:24:26.389Z,101298.19
2023-02-27T10:26:55.121Z,101297.31
2023-02-27T10:29:36.501Z,101295.41
2023-02-27T10:32:10.385Z,101304.31
2023-02-27T10:34:39.579Z,101305.91
2023-02-27T10:37:07.376Z,101307.78
2023-02-27T10:39:51.601Z,101313.81
2023-02-27T10:42:18.980Z,101313.81
2023-02-27T10:44:46.123Z,101313.75
2023-02-27T10:47:16.375Z,101308.53
2023-02-27T10:49:44.120Z,101305.09
2023-02-27T10:52:13.606Z,101304.25
2023-02-27T10:54:42.052Z,101321.53
2023-02-27T10:57:30.540Z,101300.66
2023-02-27T11:00:05.800Z,101299.66
2023-02-27T11:02:39.637Z,101309.16
2023-02-27T11:05:22.752Z,101294.47
2023-02-27T11:07:49.479Z,101298.53
2023-02-27T11:10:19.761Z,101304.66
2023-02-27T11:13:21.523Z,101289.13
2023-02-27T11:16:07.298Z,101288.03
2023-02-27T11:18:35.007Z,101298.22
2023-02-27T11:21:19.984Z,101285.56
2023-02-27T11:23:58.961Z,101290.59
2023-02-27T11:26:36.154Z,101279.13
2023-02-27T11:29:08.783Z,101280.63
2023-02-27T11:31:37.787Z,101281.56
2023-02-27T11:34:05.965Z,101278.03
2023-02-27T11:36:39.955Z,101281.69
2023-02-27T11:39:07.076Z,101278.16
2023-02-27T11:41:34.571Z,101279.97
2023-02-27T11:44:05.590Z,101287.97
2023-02-27T11:46:46.317Z,101278.50
2023-02-27T11:49:41.585Z,101276.56
2023-02-27T11:52:28.768Z,101283.09
2023-02-27T11:54:59.052Z,101275.75
2023-02-27T11:57:38.517Z,101272.69
2023-02-27T12:00:18.184Z,101271.84
2023-02-27T12:02:55.277Z,101272.16
2023-02-27T12:05:50.161Z,101277.66
2023-02-27T12:08:38.025Z,101271.06
2023-02-27T12:11:20.668Z,101272.47
2023-02-27T12:13:53.334Z,101265.69
2023-02-27T12:16:32.265Z,101257.00
2023-02-27T12:19:20.367Z,101266.19
2023-02-27T12:21:54.504Z,101257.78
2023-02-27T12:24:27.048Z,101266.66
2023-02-27T12:27:11.544Z,101250.38
2023-02-27T12:29:59.420Z,101251.38
2023-02-27T12:32:42.220Z,101231.84
2023-02-27T12:35:43.664Z,101235.09
2023-02-27T12:38:14.976Z,101230.31
2023-02-27T12:40:59.727Z,101232.50
2023-02-27T12:43:46.504Z,101232.38
2023-02-27T12:46:22.901Z,101239.94
2023-02-27T12:48:58.651Z,101249.47
2023-02-27T12:51:28.568Z,101244.38
2023-02-27T12:54:05.367Z,101244.41
2023-02-27T12:56:50.266Z,101241.66
2023-02-27T12:59:51.429Z,101237.34
2023-02-27T13:02:36.046Z,101237.34
2023-02-27T13:05:29.852Z,101238.31
2023-02-27T13:08:08.370Z,101237.84
2023-02-27T13:10:45.465Z,101222.19
2023-02-27T13:13:36.196Z,101223.38
2023-02-27T13:16:15.614Z,101220.94
2023-02-27T13:18:56.888Z,101224.66
2023-02-27T13:21:51.121Z,101221.69
2023-02-27T13:24:26.392Z,101211.03
2023-02-27T13:26:58.897Z,101228.75
2023-02-27T13:29:49.173Z,101216.94
2023-02-27T13:32:44.760Z,101220.56
2023-02-27T13:35:48.846Z,101220.81
2023-02-27T13:38:54.414Z,101225.19
2023-02-27T13:41:20.979Z,101223.38
2023-02-27T13:43:52.575Z,101224.28
2023-02-27T13:46:29.703Z,101236.59
2023-02-27T13:49:05.289Z,101228.28
2023-02-27T13:51:34.986Z,101224.50
2023-02-27T13:54:13.410Z,101213.19
2023-02-27T13:56:59.071Z,101213.41
2023-02-27T13:59:40.396Z,101227.59
2023-02-27T14:02:09.860Z,101218.38
2023-02-27T14:04:46.605Z,101205.28
2023-02-27T14:07:21.262Z,101211.19
2023-02-27T14:09:51.820Z,101214.75
2023-02-27T14:12:30.954Z,101224.25
2023-02-27T14:15:26.349Z,101216.53
2023-02-27T14:18:12.314Z,101216.34
2023-02-27T14:20:40.603Z,101224.00
2023-02-27T14:23:20.680Z,101226.06
2023-02-27T14:25:54.203Z,101217.91
2023-02-27T14:28:46.996Z,101224.13
2023-02-27T14:31:26.357Z,101212.72
2023-02-27T14:33:55.737Z,101218.63
2023-02-27T14:36:25.973Z,101217.91
2023-02-27T14:38:57.849Z,101234.66
2023-02-27T14:41:27.310Z,101237.53
2023-02-27T14:43:57.389Z,101245.31
2023-02-27T14:46:30.773Z,101239.63
2023-02-27T14:49:03.629Z,101223.88
2023-02-27T14:51:36.944Z,101225.41
2023-02-27T14:54:13.902Z,101231.06
2023-02-27T14:56:41.328Z,101225.91
2023-02-27T14:59:25.353Z,101217.00
2023-02-27T15:01:53.547Z,101213.84
2023-02-27T15:04:23.385Z,101216.78
2023-02-27T15:06:52.166Z,101214.84
2023-02-27T15:09:30.845Z,101210.84
2023-02-27T15:12:03.936Z,101208.41
2023-02-27T15:14:37.213Z,101212.84
2023-02-27T15:17:14.405Z,101233.00
2023-02-27T15:19:47.854Z,101213.19
2023-02-27T15:22:28.936Z,101207.09
2023-02-27T15:25:04.714Z,101202.72
2023-02-27T15:27:32.030Z,101194.44
2023-02-27T15:30:00.452Z,101206.06
2023-02-27T15:32:30.807Z,101202.06
2023-02-27T15:35:00.866Z,101193.69
2023-02-27T15:37:31.606Z,101201.06
2023-02-27T15:39:59.759Z,101205.56
2023-02-27T15:42:30.346Z,101211.81
2023-02-27T15:44:58.442Z,101222.81
2023-02-27T15:47:28.222Z,101214.16
2023-02-27T15:50:06.930Z,101203.72
2023-02-27T15:52:41.605Z,101212.13
2023-02-27T15:55:16.560Z,101221.47
2023-02-27T15:57:56.642Z,101211.50
2023-02-27T16:00:30.958Z,101219.78
2023-02-27T16:02:58.517Z,101220.66
2023-02-27T16:05:30.400Z,101231.75
2023-02-27T16:07:56.908Z,101232.75
2023-02-27T16:10:28.105Z,101230.28
2023-02-27T16:12:55.245Z,101238.00
2023-02-27T16:15:30.002Z,101230.72
2023-02-27T16:18:00.821Z,101238.50
2023-02-27T16:20:41.814Z,101241.78
2023-02-27T16:23:29.275Z,101252.09
2023-02-27T16:26:30.864Z,101248.81
2023-02-27T16:29:04.003Z,101267.78
2023-02-27T16:31:32.067Z,101262.63
2023-02-27T16:34:00.999Z,101262.56
2023-02-27T16:36:32.286Z,101266.91
2023-02-27T16:38:59.655Z,101266.25
2023-02-27T16:41:27.320Z,101264.63
2023-02-27T16:43:54.090Z,101274.25
2023-02-27T16:46:22.122Z,101277.59
2023-02-27T16:48:51.126Z,101285.53
2023-02-27T16:51:21.391Z,101285.53
2023-02-27T16:53:48.184Z,101295.00
2023-02-27T16:56:16.257Z,101289.81
2023-02-27T16:58:44.676Z,101289.81
2023-02-27T17:01:13.874Z,101289.84
2023-02-27T17:03:41.726Z,101297.59
2023-02-27T17:06:09.523Z,101304.47
2023-02-27T17:08:36.055Z,101307.03
2023-02-27T17:11:04.172Z,101307.91
2023-02-27T17:13:32.137Z,101305.31
2023-02-27T17:16:06.335Z,101310.41
2023-02-27T17:18:33.216Z,101313.00
2023-02-27T17:21:01.038Z,101313.88
2023-02-27T17:23:27.663Z,101331.75
2023-02-27T17:25:54.595Z,101321.47
2023-02-27T17:28:22.494Z,101331.66
2023-02-27T17:30:50.253Z,101327.50
2023-02-27T17:33:17.382Z,101343.75
2023-02-27T17:35:43.831Z,101338.56
2023-02-27T17:38:10.334Z,101343.53
2023-02-27T17:40:37.687Z,101347.16
2023-02-27T17:43:04.395Z,101355.75
2023-02-27T17:45:31.020Z,101349.63
2023-02-27T17:47:57.456Z,101354.84
2023-02-27T17:50:23.937Z,101353.78
2023-02-27T17:52:50.430Z,101352.97
2023-02-27T17:55:17.027Z,101353.94
2023-02-27T17:57:43.612Z,101360.75
2023-02-27T18:00:16.153Z,101359.88
2023-02-27T18:02:45.637Z,101364.97
2023-02-27T18:05:12.217Z,101364.19
2023-02-27T18:07:39.478Z,101365.91
2023-02-27T18:10:08.934Z,101377.03
2023-02-27T18:12:36.682Z,101377.75
2023-02-27T18:15:05.766Z,101377.81
2023-02-27T18:17:32.776Z,101376.09
2023-02-27T18:19:59.769Z,101382.13
2023-02-27T18:22:26.853Z,101380.31
2023-02-27T18:24:54.589Z,101388.06
2023-02-27T18:27:22.270Z,101393.19
2023-02-27T18:29:50.068Z,101385.38
2023-02-27T18:32:17.585Z,101388.63
2023-02-27T18:34:44.473Z,101385.41
2023-02-27T18:37:11.368Z,101394.84
2023-02-27T18:39:38.169Z,101388.72
2023-02-27T18:42:06.800Z,101393.91
2023-02-27T18:44:33.721Z,101396.38
2023-02-27T18:47:00.515Z,101393.63
2023-02-27T18:49:27.597Z,101398.72
2023-02-27T18:51:54.077Z,101398.72
2023-02-27T18:54:20.846Z,101409.03
2023-02-27T18:56:50.816Z,101398.78
2023-02-27T18:59:17.232Z,101406.53
2023-02-27T19:01:43.964Z,101411.56
2023-02-27T19:04:11.075Z,101411.56
2023-02-27T19:06:40.880Z,101405.53
2023-02-27T19:09:10.082Z,101408.16
2023-02-27T19:11:36.961Z,101408.81
2023-02-27T19:14:06.595Z,101401.03
2023-02-27T19:16:33.751Z,101398.47
2023-02-27T19:19:01.642Z,101409.66
2023-02-27T19:21:29.103Z,101405.31
2023-02-27T19:23:56.172Z,101410.44
2023-02-27T19:26:24.649Z,101407.13
2023-02-27T19:28:53.632Z,101409.66
2023-02-27T19:31:21.548Z,101406.13
2023-02-27T19:33:48.282Z,101404.50
2023-02-27T19:36:17.846Z,101405.28
2023-02-27T19:38:44.539Z,101399.16
2023-02-27T19:41:14.024Z,101408.63
2023-02-27T19:43:41.479Z,101407.66
2023-02-27T19:46:11.129Z,101408.22
2023-02-27T19:48:38.652Z,101418.69
2023-02-27T19:51:06.630Z,101411.78
2023-02-27T19:53:35.826Z,101410.97
2023-02-27T19:56:05.325Z,101406.69
2023-02-27T19:58:33.519Z,101413.53
2023-02-27T20:01:00.684Z,101411.91
2023-02-27T20:03:28.943Z,101419.50
2023-02-27T20:05:55.850Z,101422.09
2023-02-27T20:08:22.790Z,101415.34
2023-02-27T20:10:59.905Z,101420.34
2023-02-27T20:13:27.455Z,101413.44
2023-02-27T20:15:58.572Z,101418.59
2023-02-27T20:18:27.382Z,101411.84
2023-02-27T20:21:02.465Z,101419.66
2023-02-27T20:23:29.981Z,101418.84
2023-02-27T20:25:56.618Z,101418.75
2023-02-27T20:28:23.570Z,101410.16
2023-02-27T20:30:50.319Z,101414.34
2023-02-27T20:33:16.810Z,101415.13
2023-02-27T20:35:43.304Z,101413.31
2023-02-27T20:38:10.116Z,101414.19
2023-02-27T20:40:36.751Z,101411.53
2023-02-27T20:43:04.153Z,101403.00
2023-02-27T20:45:30.765Z,101413.09
2023-02-27T20:47:57.319Z,101414.00
2023-02-27T20:50:23.837Z,101412.28
2023-02-27T20:52:53.633Z,101414.81
2023-02-27T20:55:20.394Z,101412.19
2023-02-27T20:57:46.857Z,101407.84
2023-02-27T21:00:14.574Z,101411.94
2023-02-27T21:02:41.209Z,101412.03
2023-02-27T21:05:08.018Z,101415.56
2023-02-27T21:07:34.591Z,101410.16
2023-02-27T21:10:01.156Z,101412.06
2023-02-27T21:12:27.726Z,101415.63
2023-02-27T21:14:55.869Z,101420.56
2023-02-27T21:17:24.818Z,101414.34
2023-02-27T21:19:51.740Z,101409.25
2023-02-27T21:22:18.454Z,101416.94
2023-02-27T21:24:46.833Z,101416.94
2023-02-27T21:27:13.445Z,101419.56
2023-02-27T21:29:40.203Z,101416.13
2023-02-27T21:32:07.407Z,101411.81
2023-02-27T21:34:34.066Z,101410.88
2023-02-27T21:37:02.626Z,101412.63
2023-02-27T21:39:29.314Z,101413.78
2023-02-27T21:41:56.146Z,101413.03
2023-02-27T21:44:26.594Z,101399.97
2023-02-27T21:46:54.076Z,101405.09
2023-02-27T21:49:24.509Z,101400.97
2023-02-27T21:51:51.194Z,101399.94
2023-02-27T21:54:18.907Z,101393.94
2023-02-27T21:56:47.294Z,101397.34
2023-02-27T21:59:15.181Z,101396.66
2023-02-27T22:01:46.920Z,101387.06
2023-02-27T22:04:15.338Z,101390.47
2023-02-27T22:06:41.777Z,101389.66
2023-02-27T22:09:08.236Z,101384.41
2023-02-27T22:11:35.307Z,101384.59
2023-02-27T22:14:02.923Z,101388.88
2023-02-27T22:16:29.354Z,101383.63
2023-02-27T22:18:55.983Z,101389.56
2023-02-27T22:21:25.238Z,101387.19
2023-02-27T22:23:52.460Z,101386.38
2023-02-27T22:26:21.974Z,101385.34
2023-02-27T22:28:48.519Z,101387.06
2023-02-27T22:31:21.139Z,101380.94
2023-02-27T22:33:50.174Z,101388.75
2023-02-27T22:36:35.821Z,101384.59
2023-02-27T22:39:03.019Z,101391.34
2023-02-27T22:41:32.480Z,101382.47
2023-02-27T22:44:00.311Z,101382.47
2023-02-27T22:46:29.666Z,101383.41
2023-02-27T22:48:58.463Z,101383.34
2023-02-27T22:51:27.750Z,101379.84
2023-02-27T22:53:56.524Z,101381.56
2023-02-27T22:56:23.907Z,101381.53
2023-02-27T22:58:50.956Z,101372.09
2023-02-27T23:01:21.578Z,101377.94
2023-02-27T23:03:51.152Z,101377.94
2023-02-27T23:06:20.647Z,101379.59
2023-02-27T23:08:47.999Z,101376.88
2023-02-27T23:11:15.994Z,101382.19
2023-02-27T23:13:42.631Z,101383.56
2023-02-27T23:16:13.670Z,101377.47
2023-02-27T23:18:43.237Z,101381.84
2023-02-27T23:21:10.213Z,101378.41
2023-02-27T23:23:36.871Z,101379.22
2023-02-27T23:26:04.232Z,101384.00
2023-02-27T23:28:30.775Z,101381.38
2023-02-27T23:30:58.304Z,101382.13
2023-02-27T23:33:26.171Z,101384.69
2023-02-27T23:35:53.096Z,101385.53
2023-02-27T23:38:19.660Z,101387.44
2023-02-27T23:40:46.433Z,101378.00
2023-02-27T23:43:32.926Z,101390.00
2023-02-27T23:46:05.806Z,101388.81
2023-02-27T23:48:32.381Z,101390.75
2023-02-27T23:51:02.593Z,101391.41
2023-02-27T23:53:30.248Z,101393.16
2023-02-27T23:55:56.856Z,101388.94
2023-02-27T23:58:23.483Z,101392.41
